createdAt,value
2018-05-17T00:02:19.720Z,3.97
2018-05-17T00:04:48.560Z,3.53
2018-05-17T00:07:17.408Z,3.70
2018-05-17T00:09:46.232Z,3.00
2018-05-17T00:12:15.047Z,4.07
2018-05-17T00:14:43.892Z,2.93
2018-05-17T00:17:12.712Z,3.30
2018-05-17T00:19:41.596Z,3.50
2018-05-17T00:22:10.419Z,3.57
2018-05-17T00:24:39.243Z,3.80
2018-05-17T00:27:08.116Z,3.20
2018-05-17T00:29:36.964Z,3.67
2018-05-17T00:32:05.783Z,3.20
2018-05-17T00:34:34.607Z,3.40
2018-05-17T00:37:03.434Z,3.43
2018-05-17T00:39:32.255Z,3.80
2018-05-17T00:42:01.092Z,3.50
2018-05-17T00:44:29.935Z,4.40
2018-05-17T00:46:58.777Z,4.37
2018-05-17T00:49:27.620Z,3.93
2018-05-17T00:51:56.447Z,4.37
2018-05-17T00:54:25.275Z,4.20
2018-05-17T00:56:54.138Z,3.30
2018-05-17T00:59:22.975Z,3.90
2018-05-17T01:01:51.820Z,4.20
2018-05-17T01:04:20.651Z,4.20
2018-05-17T01:06:49.538Z,3.80
2018-05-17T01:09:18.359Z,3.33
2018-05-17T01:11:47.184Z,3.30
2018-05-17T01:14:16.032Z,3.17
2018-05-17T01:16:44.851Z,3.70
2018-05-17T01:19:13.677Z,3.53
2018-05-17T01:21:42.507Z,3.20
2018-05-17T01:24:11.358Z,4.40
2018-05-17T01:26:40.170Z,3.23
2018-05-17T01:29:09.118Z,3.10
2018-05-17T01:31:37.955Z,3.33
2018-05-17T01:34:06.773Z,2.83
2018-05-17T01:36:41.554Z,3.63
2018-05-17T01:39:10.427Z,3.43
2018-05-17T01:41:39.335Z,3.57
2018-05-17T01:44:08.164Z,3.80
2018-05-17T01:46:36.985Z,3.77
2018-05-17T01:49:05.836Z,3.57
2018-05-17T01:51:34.655Z,3.97
2018-05-17T01:54:03.542Z,3.70
2018-05-17T01:56:32.367Z,5.00
2018-05-17T01:59:01.197Z,4.10
2018-05-17T02:01:30.035Z,3.70
2018-05-17T02:03:58.863Z,4.60
2018-05-17T02:06:27.695Z,4.77
2018-05-17T02:08:56.535Z,4.20
2018-05-17T02:11:25.385Z,3.80
2018-05-17T02:13:54.214Z,3.50
2018-05-17T02:16:23.043Z,3.50
2018-05-17T02:18:51.867Z,4.60
2018-05-17T02:21:20.687Z,4.13
2018-05-17T02:23:49.518Z,5.00
2018-05-17T02:26:18.359Z,3.87
2018-05-17T02:28:47.216Z,4.50
2018-05-17T02:31:16.043Z,3.87
2018-05-17T02:33:44.872Z,3.67
2018-05-17T02:36:13.736Z,3.30
2018-05-17T02:38:42.593Z,3.00
2018-05-17T02:41:11.415Z,3.40
2018-05-17T02:43:40.243Z,3.03
2018-05-17T02:46:09.204Z,3.50
2018-05-17T02:48:38.036Z,3.57
2018-05-17T02:51:06.876Z,2.80
2018-05-17T02:53:35.717Z,3.00
2018-05-17T02:56:04.565Z,3.37
2018-05-17T02:58:33.383Z,3.20
2018-05-17T03:01:02.234Z,3.20
2018-05-17T03:03:31.060Z,3.30
2018-05-17T03:05:59.886Z,3.27
2018-05-17T03:08:28.738Z,3.50
2018-05-17T03:10:57.559Z,3.40
2018-05-17T03:13:26.387Z,2.80
2018-05-17T03:15:55.231Z,3.00
2018-05-17T03:18:24.063Z,2.93
2018-05-17T03:20:52.909Z,2.90
2018-05-17T03:23:21.759Z,3.50
2018-05-17T03:25:50.603Z,3.47
2018-05-17T03:28:19.431Z,3.10
2018-05-17T03:30:48.287Z,3.50
2018-05-17T03:33:17.198Z,3.70
2018-05-17T03:35:46.028Z,3.80
2018-05-17T03:38:14.847Z,3.40
2018-05-17T03:40:43.675Z,3.37
2018-05-17T03:43:12.515Z,3.50
2018-05-17T03:45:41.363Z,2.90
2018-05-17T03:48:10.211Z,3.70
2018-05-17T03:50:39.057Z,3.67
2018-05-17T03:53:07.890Z,4.10
2018-05-17T03:55:36.710Z,4.10
2018-05-17T03:58:05.556Z,3.77
2018-05-17T04:00:40.356Z,3.70
2018-05-17T04:03:15.915Z,3.63
2018-05-17T04:05:44.743Z,4.07
2018-05-17T04:08:13.577Z,3.77
2018-05-17T04:10:42.418Z,3.90
2018-05-17T04:13:11.247Z,4.57
2018-05-17T04:15:40.110Z,4.80
2018-05-17T04:18:09.000Z,4.90
2018-05-17T04:20:37.817Z,4.90
2018-05-17T04:23:06.647Z,5.10
2018-05-17T04:25:35.468Z,4.90
2018-05-17T04:28:04.315Z,5.03
2018-05-17T04:30:33.156Z,4.57
2018-05-17T04:33:01.997Z,4.33
2018-05-17T04:35:30.820Z,4.93
2018-05-17T04:37:59.670Z,5.80
2018-05-17T04:40:28.601Z,4.67
2018-05-17T04:42:57.350Z,4.80
2018-05-17T04:45:26.201Z,5.13
2018-05-17T04:47:55.040Z,5.03
2018-05-17T04:50:23.865Z,4.70
2018-05-17T04:52:52.680Z,4.57
2018-05-17T04:55:21.523Z,6.00
2018-05-17T04:57:50.350Z,7.53
2018-05-17T05:00:19.198Z,6.30
2018-05-17T05:02:48.090Z,4.87
2018-05-17T05:05:16.916Z,4.60
2018-05-17T05:07:45.755Z,5.20
2018-05-17T05:10:14.643Z,6.57
2018-05-17T05:12:43.501Z,6.13
2018-05-17T05:15:12.328Z,5.60
2018-05-17T05:17:41.175Z,5.03
2018-05-17T05:20:09.998Z,5.03
2018-05-17T05:22:38.887Z,4.93
2018-05-17T05:25:07.715Z,5.10
2018-05-17T05:27:36.538Z,5.40
2018-05-17T05:30:05.392Z,5.57
2018-05-17T05:32:34.215Z,5.63
2018-05-17T05:35:03.047Z,5.47
2018-05-17T05:37:31.952Z,5.93
2018-05-17T05:40:00.742Z,4.27
2018-05-17T05:42:29.570Z,5.27
2018-05-17T05:44:58.411Z,5.57
2018-05-17T05:47:27.239Z,5.40
2018-05-17T05:49:56.059Z,5.10
2018-05-17T05:52:24.991Z,6.07
2018-05-17T05:54:53.841Z,5.97
2018-05-17T05:57:22.667Z,5.93
2018-05-17T05:59:51.494Z,5.80
2018-05-17T06:02:20.382Z,5.60
2018-05-17T06:04:49.200Z,5.70
2018-05-17T06:07:18.051Z,6.67
2018-05-17T06:09:46.879Z,6.50
2018-05-17T06:12:15.706Z,6.50
2018-05-17T06:14:44.524Z,6.03
2018-05-17T06:17:13.351Z,6.17
2018-05-17T06:19:42.201Z,7.50
2018-05-17T06:22:11.026Z,7.90
2018-05-17T06:24:39.856Z,12.37
2018-05-17T06:27:08.703Z,11.13
2018-05-17T06:29:37.544Z,9.83
2018-05-17T06:32:06.367Z,15.10
2018-05-17T06:34:35.216Z,19.50
2018-05-17T06:37:04.043Z,19.90
2018-05-17T06:39:32.875Z,19.53
2018-05-17T06:42:01.723Z,18.67
2018-05-17T06:44:30.555Z,17.53
2018-05-17T06:46:59.391Z,17.37
2018-05-17T06:49:28.248Z,15.33
2018-05-17T06:51:57.094Z,16.20
2018-05-17T06:54:25.921Z,13.20
2018-05-17T06:56:54.808Z,15.23
2018-05-17T06:59:23.651Z,14.07
2018-05-17T07:01:52.481Z,12.30
2018-05-17T07:04:21.299Z,8.30
2018-05-17T07:06:50.138Z,9.83
2018-05-17T07:09:18.991Z,9.50
2018-05-17T07:11:47.879Z,9.37
2018-05-17T07:14:16.710Z,10.07
2018-05-17T07:16:45.535Z,8.73
2018-05-17T07:19:14.358Z,8.83
2018-05-17T07:21:43.203Z,8.53
2018-05-17T07:24:12.185Z,7.70
2018-05-17T07:26:40.963Z,9.47
2018-05-17T07:29:09.820Z,8.90
2018-05-17T07:31:38.640Z,8.07
2018-05-17T07:34:07.474Z,8.90
2018-05-17T07:36:36.325Z,9.47
2018-05-17T07:39:06.103Z,10.47
2018-05-17T07:41:34.947Z,9.63
2018-05-17T07:44:03.779Z,10.83
2018-05-17T07:46:32.602Z,9.20
2018-05-17T07:49:01.452Z,9.77
2018-05-17T07:51:30.274Z,10.67
2018-05-17T07:53:59.116Z,11.97
2018-05-17T07:56:27.959Z,9.30
2018-05-17T07:58:56.788Z,12.07
2018-05-17T08:01:25.616Z,14.43
2018-05-17T08:03:54.471Z,11.30
2018-05-17T08:06:23.305Z,13.20
2018-05-17T08:08:52.131Z,14.30
2018-05-17T08:11:20.988Z,8.63
2018-05-17T08:13:49.811Z,15.50
2018-05-17T08:16:18.660Z,12.80
2018-05-17T08:18:47.510Z,12.53
2018-05-17T08:21:16.342Z,12.07
2018-05-17T08:23:45.251Z,16.07
2018-05-17T08:26:14.066Z,14.00
2018-05-17T08:28:42.898Z,20.03
2018-05-17T08:31:11.747Z,13.50
2018-05-17T08:33:40.583Z,12.80
2018-05-17T08:36:09.449Z,17.60
2018-05-17T08:38:38.275Z,18.00
2018-05-17T08:41:07.124Z,15.80
2018-05-17T08:43:35.947Z,19.50
2018-05-17T08:46:04.796Z,19.30
2018-05-17T08:48:33.628Z,16.63
2018-05-17T08:51:02.454Z,18.30
2018-05-17T08:53:31.283Z,18.20
2018-05-17T08:56:00.101Z,17.20
2018-05-17T08:58:28.927Z,16.10
2018-05-17T09:00:57.783Z,13.67
2018-05-17T09:03:26.610Z,15.77
2018-05-17T09:05:55.443Z,15.63
2018-05-17T09:08:24.299Z,12.70
2018-05-17T09:10:53.131Z,16.80
2018-05-17T09:13:21.979Z,16.17
2018-05-17T09:15:50.818Z,11.67
2018-05-17T09:18:19.643Z,13.97
2018-05-17T09:20:48.475Z,15.00
2018-05-17T09:23:17.338Z,13.40
2018-05-17T09:25:46.177Z,16.43
2018-05-17T09:28:15.015Z,17.23
2018-05-17T09:30:43.877Z,11.77
2018-05-17T09:33:12.707Z,13.00
2018-05-17T09:35:41.597Z,10.53
2018-05-17T09:38:10.406Z,11.27
2018-05-17T09:40:39.235Z,9.20
2018-05-17T09:43:08.059Z,10.37
2018-05-17T09:45:36.909Z,10.30
2018-05-17T09:48:05.759Z,9.63
2018-05-17T09:50:34.591Z,11.73
2018-05-17T09:53:03.428Z,13.60
2018-05-17T09:55:32.279Z,12.20
2018-05-17T09:58:01.107Z,14.47
2018-05-17T10:00:30.866Z,13.47
2018-05-17T10:02:59.720Z,11.47
2018-05-17T10:05:28.543Z,11.50
2018-05-17T10:07:57.391Z,10.87
2018-05-17T10:10:26.223Z,12.80
2018-05-17T10:12:55.057Z,12.80
2018-05-17T10:15:24.005Z,13.10
2018-05-17T10:17:52.850Z,11.50
2018-05-17T10:20:21.765Z,12.10
2018-05-17T10:22:50.607Z,13.67
2018-05-17T10:25:19.853Z,11.33
2018-05-17T10:27:48.695Z,11.80
2018-05-17T10:30:17.544Z,11.20
2018-05-17T10:32:46.377Z,12.77
2018-05-17T10:35:15.211Z,13.77
2018-05-17T10:37:44.056Z,10.60
2018-05-17T10:40:14.699Z,11.03
2018-05-17T10:42:43.552Z,9.67
2018-05-17T10:45:12.416Z,13.93
2018-05-17T10:47:41.255Z,15.17
2018-05-17T10:50:10.109Z,12.83
2018-05-17T10:52:38.943Z,12.30
2018-05-17T10:55:07.796Z,12.60
2018-05-17T10:57:36.642Z,11.57
2018-05-17T11:00:05.475Z,11.13
2018-05-17T11:02:34.393Z,9.50
2018-05-17T11:05:03.174Z,11.33
2018-05-17T11:07:32.008Z,11.47
2018-05-17T11:10:00.842Z,8.13
2018-05-17T11:12:29.689Z,9.07
2018-05-17T11:14:58.502Z,9.00
2018-05-17T11:17:27.339Z,8.30
2018-05-17T11:19:56.191Z,6.47
2018-05-17T11:22:25.039Z,7.20
2018-05-17T11:24:53.872Z,6.67
2018-05-17T11:27:22.715Z,5.73
2018-05-17T11:29:51.618Z,5.40
2018-05-17T11:32:20.474Z,5.50
2018-05-17T11:34:49.299Z,6.50
2018-05-17T11:37:18.123Z,4.70
2018-05-17T11:39:46.944Z,4.87
2018-05-17T11:42:15.805Z,8.83
2018-05-17T11:44:44.699Z,6.57
2018-05-17T11:47:13.521Z,5.07
2018-05-17T11:49:42.342Z,3.83
2018-05-17T11:52:11.180Z,5.17
2018-05-17T11:54:40.004Z,4.90
2018-05-17T11:57:08.827Z,5.50
2018-05-17T11:59:37.671Z,4.93
2018-05-17T12:02:06.502Z,5.70
2018-05-17T12:04:35.343Z,5.60
2018-05-17T12:07:04.190Z,5.40
2018-05-17T12:09:33.017Z,4.90
2018-05-17T12:12:01.840Z,6.13
2018-05-17T12:14:30.687Z,6.77
2018-05-17T12:16:59.530Z,6.73
2018-05-17T12:19:28.354Z,6.73
2018-05-17T12:21:57.213Z,8.83
2018-05-17T12:24:26.043Z,6.80
2018-05-17T12:26:54.871Z,5.93
2018-05-17T12:29:23.714Z,6.57
2018-05-17T12:31:52.669Z,5.73
2018-05-17T12:34:21.443Z,6.73
2018-05-17T12:36:50.282Z,6.70
2018-05-17T12:39:19.114Z,7.67
2018-05-17T12:41:47.971Z,7.50
2018-05-17T12:44:16.819Z,8.30
2018-05-17T12:46:45.659Z,6.27
2018-05-17T12:49:14.594Z,7.30
2018-05-17T12:51:43.435Z,7.40
2018-05-17T12:54:12.264Z,8.00
2018-05-17T12:56:41.185Z,6.70
2018-05-17T12:59:09.925Z,6.80
2018-05-17T13:01:38.772Z,6.17
2018-05-17T13:04:07.595Z,6.93
2018-05-17T13:06:36.454Z,5.37
2018-05-17T13:09:05.949Z,6.80
2018-05-17T13:11:34.770Z,7.30
2018-05-17T13:14:03.635Z,8.33
2018-05-17T13:16:32.467Z,9.37
2018-05-17T13:19:01.316Z,7.90
2018-05-17T13:21:30.492Z,7.13
2018-05-17T13:23:59.650Z,8.60
2018-05-17T13:26:28.927Z,11.53
2018-05-17T13:28:57.755Z,8.67
2018-05-17T13:31:26.583Z,7.83
2018-05-17T13:33:55.434Z,9.77
2018-05-17T13:36:24.270Z,9.23
2018-05-17T13:38:53.118Z,7.20
2018-05-17T13:41:21.955Z,8.27
2018-05-17T13:43:50.804Z,8.40
2018-05-17T13:46:19.631Z,7.97
2018-05-17T13:48:48.451Z,7.60
2018-05-17T13:54:05.230Z,7.87
2018-05-17T13:56:34.087Z,8.03
2018-05-17T13:59:02.943Z,7.03
2018-05-17T14:01:31.770Z,7.00
2018-05-17T14:04:00.595Z,5.40
2018-05-17T14:06:29.455Z,5.97
2018-05-17T14:08:58.282Z,6.17
2018-05-17T14:11:27.110Z,5.57
2018-05-17T14:13:55.927Z,5.83
2018-05-17T14:16:24.746Z,6.30
2018-05-17T14:18:53.602Z,5.10
2018-05-17T14:21:22.447Z,4.93
2018-05-17T14:23:51.278Z,4.57
2018-05-17T14:26:20.115Z,4.00
2018-05-17T14:28:48.939Z,5.37
2018-05-17T14:31:17.763Z,3.63
2018-05-17T14:33:46.611Z,3.77
2018-05-17T14:36:15.435Z,3.77
2018-05-17T14:38:44.262Z,4.10
2018-05-17T14:41:13.083Z,4.00
2018-05-17T14:43:41.913Z,4.50
2018-05-17T14:46:10.739Z,3.63
2018-05-17T14:48:39.602Z,3.80
2018-05-17T14:51:08.427Z,3.40
2018-05-17T14:53:37.280Z,3.50
2018-05-17T14:56:06.131Z,4.40
2018-05-17T14:58:34.950Z,4.43
2018-05-17T15:01:03.772Z,4.27
2018-05-17T15:03:32.607Z,4.07
2018-05-17T15:06:01.451Z,3.60
2018-05-17T15:08:30.293Z,3.83
2018-05-17T15:10:59.344Z,2.80
2018-05-17T15:13:27.963Z,3.93
2018-05-17T15:15:56.799Z,3.37
2018-05-17T15:18:25.622Z,3.20
2018-05-17T15:20:54.444Z,3.87
2018-05-17T15:23:23.286Z,3.87
2018-05-17T15:25:52.114Z,3.73
2018-05-17T15:28:20.941Z,2.90
2018-05-17T15:30:49.794Z,2.97
2018-05-17T15:33:18.619Z,3.10
2018-05-17T15:35:47.581Z,3.17
2018-05-17T15:38:16.426Z,2.70
2018-05-17T15:40:45.243Z,3.20
2018-05-17T15:43:14.067Z,2.83
2018-05-17T15:45:42.918Z,3.37
2018-05-17T15:48:11.793Z,3.53
2018-05-17T15:50:40.587Z,3.83
2018-05-17T15:53:09.438Z,3.70
2018-05-17T15:55:38.258Z,3.60
2018-05-17T15:58:07.100Z,3.43
2018-05-17T16:00:35.946Z,3.97
2018-05-17T16:03:04.800Z,3.60
2018-05-17T16:05:33.655Z,3.37
2018-05-17T16:08:02.510Z,3.97
2018-05-17T16:10:31.350Z,3.90
2018-05-17T16:13:00.265Z,3.20
2018-05-17T16:15:29.286Z,3.70
2018-05-17T16:17:57.987Z,3.50
2018-05-17T16:20:26.846Z,2.97
2018-05-17T16:22:55.663Z,3.27
2018-05-17T16:25:24.498Z,3.87
2018-05-17T16:27:53.326Z,3.30
2018-05-17T16:30:22.141Z,3.30
2018-05-17T16:32:50.986Z,3.07
2018-05-17T16:35:19.874Z,4.00
2018-05-17T16:37:48.764Z,3.17
2018-05-17T16:40:17.578Z,3.70
2018-05-17T16:42:46.437Z,3.27
2018-05-17T16:45:15.298Z,3.63
2018-05-17T16:47:44.117Z,4.20
2018-05-17T16:50:12.965Z,3.23
2018-05-17T16:52:41.873Z,3.57
2018-05-17T16:55:10.620Z,3.30
2018-05-17T16:57:39.462Z,3.43
2018-05-17T17:00:08.368Z,3.20
2018-05-17T17:02:37.314Z,64.33
2018-05-17T17:05:06.191Z,474.70
2018-05-17T17:07:35.010Z,240.03
2018-05-17T17:10:03.875Z,169.83
2018-05-17T17:12:32.819Z,106.00
2018-05-17T17:15:01.641Z,84.10
2018-05-17T17:17:30.475Z,75.23
2018-05-17T17:19:59.316Z,61.30
2018-05-17T17:22:28.171Z,48.90
2018-05-17T17:24:57.025Z,166.87
2018-05-17T17:27:25.889Z,150.97
2018-05-17T17:29:54.731Z,127.27
2018-05-17T17:32:23.570Z,156.50
2018-05-17T17:34:52.414Z,11.13
2018-05-17T17:37:21.274Z,31.43
2018-05-17T17:39:50.203Z,6.77
2018-05-17T17:42:19.023Z,37.77
2018-05-17T17:44:47.865Z,22.60
2018-05-17T17:47:16.700Z,26.27
2018-05-17T17:49:45.969Z,480.30
2018-05-17T17:52:14.860Z,348.93
2018-05-17T17:54:43.699Z,118.63
2018-05-17T17:57:12.556Z,11.83
2018-05-17T17:59:41.418Z,332.57
2018-05-17T18:02:10.263Z,74.27
2018-05-17T18:04:39.127Z,152.67
2018-05-17T18:07:07.978Z,43.03
2018-05-17T18:09:36.807Z,8.00
2018-05-17T18:12:05.667Z,110.67
2018-05-17T18:14:34.511Z,49.87
2018-05-17T18:17:03.364Z,68.67
2018-05-17T18:19:32.203Z,16.47
2018-05-17T18:22:01.022Z,23.23
2018-05-17T18:24:29.923Z,46.47
2018-05-17T18:26:58.755Z,86.07
2018-05-17T18:29:27.603Z,110.53
2018-05-17T18:31:56.478Z,113.17
2018-05-17T18:34:25.338Z,22.87
2018-05-17T18:36:54.275Z,39.37
2018-05-17T18:39:23.135Z,167.10
2018-05-17T18:41:51.997Z,38.27
2018-05-17T18:44:20.820Z,8.70
2018-05-17T18:46:49.670Z,53.50
2018-05-17T18:49:18.620Z,14.70
2018-05-17T18:51:47.505Z,82.00
2018-05-17T18:54:16.398Z,192.53
2018-05-17T18:56:45.776Z,269.50
2018-05-17T18:59:14.622Z,219.40
2018-05-17T19:01:43.874Z,104.67
2018-05-17T19:04:12.655Z,379.47
2018-05-17T19:06:41.487Z,194.77
2018-05-17T19:09:10.329Z,250.00
2018-05-17T19:11:39.195Z,147.87
